Time;durP1;ratioP1;P1;durP2;ratioP2;P2;SDS_P1;SDS_P2;PMS_P1;PMS_P2;Temp;Humidity;BMP_temperature;BMP_pressure;BME280_temperature;BME280_humidity;BME280_pressure;Samples;Min_cycle;Max_cycle;Signal;HPM_P1;HPM_P2
2022/04/23 00:00:20;;;;;;;2.78;1.88;;;11.40;99.90;;;;;;5074483;28;20043;-73
2022/04/23 00:02:46;;;;;;;3.75;2.55;;;11.40;99.90;;;;;;5074625;28;20514;-73
2022/04/23 00:05:11;;;;;;;4.13;2.05;;;11.30;99.90;;;;;;5091257;28;20044;-72
2022/04/23 00:07:37;;;;;;;4.78;2.53;;;11.30;99.90;;;;;;5074316;28;20040;-73
2022/04/23 00:10:04;;;;;;;3.83;2.08;;;11.20;99.90;;;;;;5091294;28;20093;-73
2022/04/23 00:12:30;;;;;;;5.35;2.15;;;11.20;99.90;;;;;;5091505;28;20511;-73
2022/04/23 00:14:56;;;;;;;3.38;1.88;;;11.20;99.90;;;;;;5091129;28;20083;-72
2022/04/23 00:17:22;;;;;;;5.05;2.60;;;11.20;99.90;;;;;;5075177;28;20153;-72
2022/04/23 00:19:48;;;;;;;3.67;2.58;;;11.20;99.90;;;;;;5095026;28;20056;-73
2022/04/23 00:22:18;;;;;;;3.75;1.98;;;11.10;99.90;;;;;;5094872;28;20040;-74
2022/04/23 00:24:44;;;;;;;3.53;2.00;;;11.10;99.90;;;;;;5095138;28;20040;-72
2022/04/23 00:27:10;;;;;;;3.45;1.80;;;11.10;99.90;;;;;;5094656;28;20044;-73
2022/04/23 00:29:36;;;;;;;2.20;1.52;;;11.10;99.90;;;;;;5095229;28;20552;-72
2022/04/23 00:32:02;;;;;;;2.58;1.73;;;11.00;99.90;;;;;;5094402;28;20055;-72
2022/04/23 00:34:28;;;;;;;3.65;2.08;;;11.00;99.90;;;;;;5077885;28;20063;-72
2022/04/23 00:36:54;;;;;;;3.17;1.90;;;11.00;99.90;;;;;;5094649;28;20036;-72
2022/04/23 00:39:20;;;;;;;2.80;1.67;;;10.90;99.90;;;;;;5077816;28;20044;-72
2022/04/23 00:41:46;;;;;;;3.50;1.77;;;10.90;99.90;;;;;;5094575;28;20055;-72
2022/04/23 00:44:16;;;;;;;2.65;1.65;;;10.80;99.90;;;;;;5077916;28;20044;-73
2022/04/23 00:46:42;;;;;;;3.25;2.30;;;10.80;99.90;;;;;;5094380;28;20117;-73
2022/04/23 00:49:08;;;;;;;3.08;1.42;;;10.70;99.90;;;;;;5094318;28;20071;-73
2022/04/23 00:51:35;;;;;;;3.22;2.10;;;10.70;99.90;;;;;;5094687;28;20044;-73
2022/04/23 00:54:07;;;;;;;4.93;1.80;;;10.60;99.90;;;;;;5094350;28;20040;-73
2022/04/23 00:56:37;;;;;;;3.58;2.40;;;10.60;99.90;;;;;;5094309;28;20046;-74
2022/04/23 00:59:11;;;;;;;3.07;2.20;;;10.60;99.90;;;;;;5094227;28;20121;-74
2022/04/23 01:01:39;;;;;;;4.60;1.58;;;10.60;99.90;;;;;;5094231;28;20314;-73
2022/04/23 01:04:06;;;;;;;2.15;1.50;;;10.50;99.90;;;;;;5094369;28;20059;-73
2022/04/23 01:06:34;;;;;;;3.88;2.00;;;10.50;99.90;;;;;;5077233;28;20051;-73
2022/04/23 01:09:06;;;;;;;2.70;1.73;;;10.40;99.90;;;;;;5094064;28;20079;-73
2022/04/23 01:11:33;;;;;;;4.25;1.75;;;10.40;99.90;;;;;;5094604;28;20514;-73
2022/04/23 01:14:00;;;;;;;2.58;1.90;;;10.30;99.90;;;;;;5076966;28;20072;-73
2022/04/23 01:16:26;;;;;;;4.22;2.08;;;10.30;99.90;;;;;;5077252;28;20491;-74
2022/04/23 01:18:52;;;;;;;3.65;2.13;;;10.30;99.90;;;;;;5094125;28;20039;-73
2022/04/23 01:21:18;;;;;;;3.03;1.92;;;10.30;99.90;;;;;;5076929;28;20040;-73
2022/04/23 01:23:47;;;;;;;4.97;2.30;;;10.30;99.90;;;;;;5093742;28;20051;-74
2022/04/23 01:26:14;;;;;;;3.05;2.20;;;10.20;99.90;;;;;;5093939;28;20036;-73
2022/04/23 01:28:40;;;;;;;3.17;2.10;;;10.20;99.90;;;;;;5093424;28;20044;-73
2022/04/23 01:31:07;;;;;;;4.57;1.92;;;10.20;99.90;;;;;;5060032;28;20101;-73
2022/04/23 01:33:36;;;;;;;2.97;1.48;;;10.20;99.90;;;;;;5093575;28;20043;-74
2022/04/23 01:36:03;;;;;;;4.38;2.42;;;10.20;99.90;;;;;;5093440;28;20058;-73
2022/04/23 01:38:28;;;;;;;4.03;2.60;;;10.10;99.90;;;;;;5093485;28;20388;-74
2022/04/23 01:40:54;;;;;;;3.33;1.85;;;10.20;99.90;;;;;;5093409;28;20086;-73
2022/04/23 01:43:20;;;;;;;3.63;1.92;;;10.10;99.90;;;;;;5093359;28;20051;-73
2022/04/23 01:45:46;;;;;;;2.20;1.60;;;10.00;99.90;;;;;;5093696;28;20085;-73
2022/04/23 01:48:11;;;;;;;4.35;2.60;;;10.10;99.90;;;;;;5093299;28;20048;-74
2022/04/23 01:50:37;;;;;;;4.03;1.95;;;10.10;99.90;;;;;;5093376;28;20036;-74
2022/04/23 01:53:03;;;;;;;5.45;1.98;;;10.20;99.90;;;;;;5093633;28;20036;-74
2022/04/23 01:55:30;;;;;;;4.50;2.53;;;10.00;99.90;;;;;;5076394;28;20040;-74
2022/04/23 01:57:56;;;;;;;5.30;3.15;;;9.90;99.90;;;;;;5093123;28;20044;-74
2022/04/23 02:00:21;;;;;;;3.80;2.10;;;9.90;99.90;;;;;;5076487;28;20050;-73
2022/04/23 02:02:47;;;;;;;5.35;2.25;;;9.80;99.90;;;;;;5076460;28;20051;-72
2022/04/23 02:05:13;;;;;;;4.63;2.58;;;9.80;99.90;;;;;;5075982;28;20047;-73
2022/04/23 02:07:40;;;;;;;6.60;3.13;;;9.80;99.90;;;;;;5092870;28;20087;-72
2022/04/23 02:10:07;;;;;;;4.43;2.47;;;9.70;99.90;;;;;;5092833;28;20066;-73
2022/04/23 02:12:33;;;;;;;3.53;2.17;;;9.70;99.90;;;;;;5076229;28;20435;-72
2022/04/23 02:15:00;;;;;;;3.10;2.10;;;9.70;99.90;;;;;;5076132;28;20071;-72
2022/04/23 02:17:37;;;;;;;2.63;1.98;;;9.90;99.90;;;;;;5092796;28;20052;-72
2022/04/23 02:20:08;;;;;;;5.00;2.30;;;9.60;99.90;;;;;;5092698;28;20134;-72
2022/04/23 02:22:34;;;;;;;4.32;2.05;;;9.60;99.90;;;;;;5092701;28;20145;-72
2022/04/23 02:25:00;;;;;;;5.20;3.17;;;9.40;99.90;;;;;;5075901;28;20048;-72
2022/04/23 02:27:25;;;;;;;4.65;2.38;;;9.50;99.90;;;;;;5092493;28;20052;-73
2022/04/23 02:29:54;;;;;;;6.70;2.45;;;9.50;99.90;;;;;;5075671;28;20514;-72
2022/04/23 02:32:20;;;;;;;6.00;2.08;;;9.50;99.90;;;;;;5092269;28;20051;-72
2022/04/23 02:34:47;;;;;;;3.83;2.15;;;9.50;99.90;;;;;;5092670;28;20483;-72
2022/04/23 02:37:13;;;;;;;3.63;2.20;;;9.50;99.90;;;;;;5092343;28;20055;-72
2022/04/23 02:39:39;;;;;;;3.78;1.95;;;9.40;99.90;;;;;;5091904;28;20104;-73
2022/04/23 02:42:06;;;;;;;3.88;2.38;;;9.40;99.90;;;;;;5092141;28;20040;-73
2022/04/23 02:44:32;;;;;;;3.60;2.13;;;9.40;99.90;;;;;;5075296;28;20134;-73
2022/04/23 02:46:59;;;;;;;4.18;2.40;;;9.40;99.90;;;;;;5092218;28;20040;-73
2022/04/23 02:49:24;;;;;;;5.82;2.80;;;9.30;99.90;;;;;;5092430;28;20049;-73
2022/04/23 02:51:51;;;;;;;3.10;2.05;;;9.40;99.90;;;;;;5092123;28;20036;-73
2022/04/23 02:54:18;;;;;;;4.63;2.47;;;9.30;99.90;;;;;;5075364;28;20044;-72
2022/04/23 02:56:45;;;;;;;3.67;2.33;;;9.30;99.90;;;;;;5075256;28;20044;-73
2022/04/23 02:59:12;;;;;;;3.55;2.20;;;9.30;99.90;;;;;;5092214;28;20130;-73
2022/04/23 03:01:39;;;;;;;4.30;1.92;;;9.60;99.90;;;;;;5091968;28;20048;-73
2022/04/23 03:04:05;;;;;;;3.88;2.85;;;9.20;99.90;;;;;;5091892;28;20125;-73
2022/04/23 03:06:30;;;;;;;6.25;2.88;;;9.20;99.90;;;;;;5091867;28;20044;-73
2022/04/23 03:08:56;;;;;;;3.70;2.15;;;9.20;99.90;;;;;;5092208;28;20032;-73
2022/04/23 03:11:25;;;;;;;3.42;2.08;;;9.20;99.90;;;;;;5092033;28;20036;-73
2022/04/23 03:13:51;;;;;;;5.50;2.72;;;9.30;99.90;;;;;;5091777;28;20089;-73
2022/04/23 03:16:16;;;;;;;4.10;2.75;;;9.10;99.90;;;;;;5074884;28;20044;-72
2022/04/23 03:18:42;;;;;;;4.72;2.42;;;9.10;99.90;;;;;;5074906;28;20062;-73
2022/04/23 03:21:09;;;;;;;2.88;1.77;;;9.00;99.90;;;;;;5091665;28;20123;-73
2022/04/23 03:23:36;;;;;;;4.90;2.83;;;9.00;99.90;;;;;;5075434;28;20441;-73
2022/04/23 03:26:02;;;;;;;6.15;3.22;;;9.00;99.90;;;;;;5091805;28;20051;-73
2022/04/23 03:28:28;;;;;;;4.18;2.15;;;9.00;99.90;;;;;;5091873;28;20039;-73
2022/04/23 03:30:55;;;;;;;4.80;2.70;;;9.00;99.90;;;;;;5091439;28;20052;-73
2022/04/23 03:33:20;;;;;;;3.47;2.40;;;8.90;99.90;;;;;;5091512;28;20048;-73
2022/04/23 03:35:46;;;;;;;3.20;1.77;;;8.90;99.90;;;;;;5091545;28;20043;-73
2022/04/23 03:38:12;;;;;;;7.68;2.45;;;8.90;99.90;;;;;;5074651;28;20043;-73
2022/04/23 03:40:39;;;;;;;4.38;1.80;;;8.90;99.90;;;;;;5091724;28;20444;-73
2022/04/23 03:43:04;;;;;;;4.10;2.53;;;8.90;99.90;;;;;;5074739;28;20040;-73
2022/04/23 03:45:32;;;;;;;2.40;1.88;;;8.90;99.90;;;;;;5091454;28;20051;-73
2022/04/23 03:47:59;;;;;;;9.65;3.53;;;8.90;99.90;;;;;;5058171;28;20052;-73
2022/04/23 03:50:26;;;;;;;4.43;2.65;;;8.80;99.90;;;;;;5091648;28;20079;-73
2022/04/23 03:52:51;;;;;;;5.60;2.80;;;8.80;99.90;;;;;;5078176;28;20052;-73
2022/04/23 03:55:18;;;;;;;3.60;2.33;;;8.70;99.90;;;;;;5095411;28;20040;-73
2022/04/23 03:57:49;;;;;;;3.95;2.25;;;8.70;99.90;;;;;;5095684;28;20043;-72
2022/04/23 04:00:17;;;;;;;1.75;1.38;;;9.40;99.90;;;;;;5095348;28;20043;-73
2022/04/23 04:02:44;;;;;;;3.80;1.90;;;8.70;99.90;;;;;;5078431;28;20044;-73
2022/04/23 04:05:10;;;;;;;4.65;2.25;;;8.60;99.90;;;;;;5078536;28;20048;-73
2022/04/23 04:07:42;;;;;;;2.53;1.80;;;8.90;99.90;;;;;;5095291;28;20385;-73
2022/04/23 04:10:09;;;;;;;3.47;2.13;;;8.50;99.90;;;;;;5078325;28;20036;-73
2022/04/23 04:12:34;;;;;;;4.38;2.60;;;8.60;99.90;;;;;;5095451;28;20134;-73
2022/04/23 04:15:00;;;;;;;3.13;1.80;;;8.60;99.90;;;;;;5094994;28;20124;-73
2022/04/23 04:17:26;;;;;;;2.97;2.22;;;8.50;99.90;;;;;;5078371;28;20047;-73
2022/04/23 04:19:53;;;;;;;2.92;2.13;;;8.50;99.90;;;;;;5078137;28;20046;-74
2022/04/23 04:22:21;;;;;;;4.40;2.67;;;8.50;99.90;;;;;;5094907;28;20123;-73
2022/04/23 04:24:48;;;;;;;3.80;1.77;;;8.60;99.90;;;;;;5078359;28;20050;-73
2022/04/23 04:27:14;;;;;;;4.70;2.70;;;8.50;99.90;;;;;;5094764;28;20047;-73
2022/04/23 04:29:40;;;;;;;5.32;2.60;;;8.50;99.90;;;;;;5078225;28;20376;-73
2022/04/23 04:32:07;;;;;;;4.10;2.58;;;8.50;99.90;;;;;;5077794;28;20062;-73
2022/04/23 04:34:33;;;;;;;3.03;2.45;;;8.50;99.90;;;;;;5077873;28;20039;-73
2022/04/23 04:37:08;;;;;;;4.63;2.13;;;8.50;99.90;;;;;;5094613;28;20467;-73
2022/04/23 04:39:35;;;;;;;5.60;3.22;;;8.50;99.90;;;;;;5094886;28;20123;-72
2022/04/23 04:42:01;;;;;;;4.10;2.33;;;9.00;99.90;;;;;;5094805;28;20445;-73
2022/04/23 04:44:27;;;;;;;5.75;3.05;;;8.50;99.90;;;;;;5094575;28;20044;-73
2022/04/23 04:46:53;;;;;;;2.65;1.60;;;8.50;99.90;;;;;;5094714;28;20047;-73
2022/04/23 04:49:19;;;;;;;5.07;2.50;;;8.70;99.90;;;;;;5060999;28;20036;-73
2022/04/23 04:51:45;;;;;;;5.03;2.45;;;8.60;99.90;;;;;;5094457;28;20039;-73
2022/04/23 04:54:10;;;;;;;4.90;2.58;;;8.70;99.90;;;;;;5060854;28;20491;-73
2022/04/23 04:56:36;;;;;;;5.03;2.47;;;8.60;99.90;;;;;;5077371;28;20047;-73
2022/04/23 04:59:02;;;;;;;3.63;2.45;;;8.70;99.90;;;;;;5077382;28;20073;-73
2022/04/23 05:01:29;;;;;;;4.85;2.70;;;8.70;99.90;;;;;;5094242;28;20114;-74
2022/04/23 05:03:54;;;;;;;3.22;2.20;;;8.70;99.90;;;;;;5093193;28;20036;-73
2022/04/23 05:06:21;;;;;;;3.03;2.40;;;8.80;99.90;;;;;;5094015;28;20040;-74
2022/04/23 05:08:47;;;;;;;3.83;2.15;;;8.80;99.90;;;;;;5077493;28;20040;-74
2022/04/23 05:11:12;;;;;;;6.40;2.60;;;8.90;99.90;;;;;;5077082;28;20032;-74
2022/04/23 05:13:38;;;;;;;3.22;2.33;;;8.90;99.90;;;;;;5094026;28;20552;-74
2022/04/23 05:16:08;;;;;;;4.13;2.55;;;8.90;99.90;;;;;;5093902;28;20054;-73
2022/04/23 05:18:34;;;;;;;4.35;2.50;;;9.00;99.90;;;;;;5077161;28;20040;-73
2022/04/23 05:21:00;;;;;;;3.50;2.53;;;9.00;99.90;;;;;;5093720;28;20082;-74
2022/04/23 05:23:27;;;;;;;7.72;2.33;;;8.90;99.90;;;;;;5093756;28;20119;-73
2022/04/23 05:25:52;;;;;;;5.13;2.97;;;9.10;99.90;;;;;;5093889;28;20510;-73
2022/04/23 05:28:18;;;;;;;4.35;2.53;;;9.10;99.90;;;;;;5093606;28;20082;-72
2022/04/23 05:30:45;;;;;;;4.57;2.38;;;9.20;99.90;;;;;;5093408;28;20053;-73
2022/04/23 05:33:11;;;;;;;4.68;3.03;;;9.20;99.90;;;;;;5093509;28;20047;-73
2022/04/23 05:35:37;;;;;;;3.47;2.50;;;9.20;99.90;;;;;;5093634;28;20112;-73
2022/04/23 05:38:03;;;;;;;8.45;3.65;;;9.30;99.90;;;;;;5093425;28;20040;-73
2022/04/23 05:40:28;;;;;;;2.90;2.38;;;9.30;99.90;;;;;;5093518;28;20044;-72
2022/04/23 05:42:57;;;;;;;5.80;2.15;;;9.40;99.90;;;;;;5093460;28;20190;-76
2022/04/23 05:45:27;;;;;;;4.90;2.90;;;9.40;99.90;;;;;;5076425;28;20040;-73
2022/04/23 05:47:53;;;;;;;4.30;2.80;;;9.50;99.90;;;;;;5093155;28;20044;-74
2022/04/23 05:50:19;;;;;;;4.65;2.58;;;9.50;99.90;;;;;;5093258;28;20036;-74
2022/04/23 05:52:45;;;;;;;3.83;2.25;;;9.60;99.90;;;;;;5093285;28;20128;-74
2022/04/23 05:55:11;;;;;;;2.85;2.42;;;9.70;99.90;;;;;;5093079;28;20503;-73
2022/04/23 05:57:37;;;;;;;3.35;2.28;;;9.70;99.90;;;;;;5093152;28;20050;-73
2022/04/23 06:00:08;;;;;;;3.95;1.77;;;9.80;99.90;;;;;;5093113;28;20154;-74
2022/04/23 06:02:34;;;;;;;5.78;3.13;;;9.80;99.90;;;;;;5092956;28;20051;-74
2022/04/23 06:05:00;;;;;;;7.25;3.10;;;9.90;99.90;;;;;;5092983;28;20131;-73
2022/04/23 06:07:26;;;;;;;6.75;2.30;;;10.20;99.90;;;;;;5076058;28;20558;-73
2022/04/23 06:09:52;;;;;;;3.85;2.33;;;10.00;99.90;;;;;;5076024;28;20042;-73
2022/04/23 06:12:18;;;;;;;4.07;2.33;;;10.10;99.90;;;;;;5092900;28;20150;-73
2022/04/23 06:14:46;;;;;;;4.30;2.90;;;10.10;99.90;;;;;;5093102;28;20051;-74
2022/04/23 06:17:12;;;;;;;4.47;3.20;;;10.60;99.90;;;;;;5076273;28;20079;-73
2022/04/23 06:19:39;;;;;;;3.55;2.40;;;10.70;99.90;;;;;;5092669;28;20105;-73
2022/04/23 06:22:05;;;;;;;3.70;2.45;;;10.30;99.90;;;;;;5092920;28;20048;-73
2022/04/23 06:24:32;;;;;;;3.90;2.30;;;10.40;99.90;;;;;;5092597;28;20039;-72
2022/04/23 06:26:58;;;;;;;4.75;3.00;;;10.50;99.90;;;;;;5075531;28;20040;-74
2022/04/23 06:29:23;;;;;;;4.82;2.75;;;10.60;99.90;;;;;;5092476;28;20084;-74
2022/04/23 06:31:49;;;;;;;3.85;2.60;;;10.60;99.90;;;;;;5092411;28;20058;-74
2022/04/23 06:34:15;;;;;;;7.90;2.90;;;10.50;99.90;;;;;;5092343;28;20043;-74
2022/04/23 06:36:42;;;;;;;6.18;2.90;;;10.90;99.90;;;;;;5075465;28;20043;-72
2022/04/23 06:39:07;;;;;;;3.17;2.17;;;11.00;99.90;;;;;;5092591;28;20048;-74
2022/04/23 06:41:33;;;;;;;3.88;2.40;;;11.10;99.90;;;;;;5075657;28;20043;-73
2022/04/23 06:43:59;;;;;;;5.40;2.40;;;11.20;99.90;;;;;;5092273;28;20079;-74
2022/04/23 06:46:25;;;;;;;6.13;2.80;;;11.50;99.90;;;;;;5092183;28;20127;-72
2022/04/23 06:48:50;;;;;;;4.60;2.25;;;11.40;99.90;;;;;;5075287;28;20109;-74
2022/04/23 06:51:16;;;;;;;4.65;2.90;;;11.50;99.90;;;;;;5092357;28;20105;-74
2022/04/23 06:53:42;;;;;;;4.70;2.90;;;11.50;99.90;;;;;;5092027;28;20137;-72
2022/04/23 06:56:08;;;;;;;4.20;2.58;;;12.00;99.90;;;;;;5075009;28;20044;-73
2022/04/23 06:58:34;;;;;;;4.70;3.13;;;11.70;99.90;;;;;;5092086;28;20499;-74
2022/04/23 07:01:01;;;;;;;4.93;2.95;;;11.80;99.90;;;;;;5091778;28;20051;-73
2022/04/23 07:03:27;;;;;;;5.07;3.35;;;11.90;99.90;;;;;;5093187;28;20051;-73
2022/04/23 07:05:53;;;;;;;5.15;3.10;;;12.00;99.90;;;;;;5091726;28;20484;-74
2022/04/23 07:08:19;;;;;;;3.92;2.22;;;12.20;99.90;;;;;;5091473;28;20055;-73
2022/04/23 07:10:44;;;;;;;6.57;3.25;;;12.20;99.90;;;;;;5092959;28;20044;-73
2022/04/23 07:13:11;;;;;;;4.30;2.72;;;12.40;99.90;;;;;;5091535;28;20040;-70
2022/04/23 07:15:38;;;;;;;7.22;2.72;;;12.40;99.90;;;;;;5091546;28;20043;-73
2022/04/23 07:18:04;;;;;;;4.03;2.05;;;12.50;99.90;;;;;;5091863;28;20098;-73
2022/04/23 07:20:29;;;;;;;4.22;2.75;;;12.50;99.90;;;;;;5091882;28;20072;-72
2022/04/23 07:25:40;;;;;;;4.22;2.92;;;12.80;99.90;;;;;;5091343;28;20040;-73
2022/04/23 07:28:07;;;;;;;4.20;2.88;;;12.90;99.90;;;;;;5091393;28;20044;-75
2022/04/23 07:30:34;;;;;;;7.07;2.83;;;12.90;99.90;;;;;;5091614;28;20479;-75
2022/04/23 07:33:00;;;;;;;4.30;2.03;;;13.20;99.90;;;;;;5074619;28;20044;-73
2022/04/23 07:38:21;;;;;;;5.20;3.17;;;13.10;99.90;;;;;;5091624;28;20109;-75
2022/04/23 07:40:48;;;;;;;7.45;2.92;;;13.20;99.90;;;;;;5091510;28;20453;-76
2022/04/23 07:43:15;;;;;;;3.50;2.60;;;13.20;99.90;;;;;;5074601;28;20040;-74
2022/04/23 07:45:44;;;;;;;6.13;3.15;;;13.20;99.90;;;;;;5074653;28;20044;-74
2022/04/23 07:48:11;;;;;;;4.20;3.00;;;13.20;99.90;;;;;;5091396;28;20048;-74
2022/04/23 07:50:39;;;;;;;3.50;2.67;;;13.30;99.90;;;;;;5091510;28;20036;-74
2022/04/23 07:53:07;;;;;;;2.38;2.10;;;13.40;99.90;;;;;;5074502;28;20039;-73
2022/04/23 07:55:35;;;;;;;4.85;2.55;;;13.50;99.90;;;;;;5091326;28;20072;-74
2022/04/23 07:58:02;;;;;;;4.20;2.90;;;13.50;99.90;;;;;;5074462;28;20055;-74
2022/04/23 08:00:29;;;;;;;5.28;2.83;;;13.60;99.90;;;;;;5091679;28;20173;-74
2022/04/23 08:02:56;;;;;;;3.63;2.67;;;13.50;99.90;;;;;;5091325;28;20044;-75
2022/04/23 08:05:21;;;;;;;6.07;3.20;;;13.50;99.90;;;;;;5074640;28;20107;-74
2022/04/23 08:07:47;;;;;;;5.68;2.38;;;13.50;99.90;;;;;;5091340;28;20127;-73
2022/04/23 08:10:13;;;;;;;3.67;2.47;;;13.60;99.90;;;;;;5074379;28;20122;-75
2022/04/23 08:12:39;;;;;;;3.97;3.38;;;13.70;99.90;;;;;;5074373;28;20542;-72
2022/04/23 08:15:06;;;;;;;4.53;2.75;;;13.60;99.90;;;;;;5091166;28;20044;-75
2022/04/23 08:17:33;;;;;;;7.28;2.63;;;13.80;99.90;;;;;;5091392;28;20471;-76
2022/04/23 08:19:59;;;;;;;3.63;2.80;;;13.80;99.90;;;;;;5091387;28;20044;-74
2022/04/23 08:22:25;;;;;;;5.32;2.90;;;13.90;99.90;;;;;;5074230;28;20040;-75
2022/04/23 08:24:51;;;;;;;4.00;2.67;;;14.00;99.90;;;;;;5091101;28;20411;-74
2022/04/23 08:27:17;;;;;;;5.18;3.03;;;14.10;99.90;;;;;;5057558;28;20040;-75
2022/04/23 08:32:27;;;;;;;5.60;3.47;;;14.30;99.90;;;;;;5090888;28;20117;-76
2022/04/23 08:34:53;;;;;;;4.82;3.22;;;14.30;99.90;;;;;;5074403;28;20076;-77
2022/04/23 08:37:22;;;;;;;5.18;3.45;;;14.40;99.90;;;;;;5074362;28;20106;-76
2022/04/23 08:39:47;;;;;;;4.97;2.92;;;14.40;99.90;;;;;;5077116;28;20040;-76
2022/04/23 08:42:16;;;;;;;5.22;2.92;;;14.40;99.90;;;;;;5094617;28;20062;-77
2022/04/23 08:44:43;;;;;;;7.47;3.28;;;14.50;99.90;;;;;;5077608;28;20048;-76
2022/04/23 08:47:11;;;;;;;4.53;2.65;;;14.60;99.80;;;;;;5077517;28;20036;-73
2022/04/23 08:49:40;;;;;;;8.80;2.63;;;14.70;99.90;;;;;;5061225;28;20476;-76
2022/04/23 08:52:11;;;;;;;5.38;3.22;;;14.80;99.20;;;;;;5094431;28;20051;-76
2022/04/23 08:54:38;;;;;;;5.60;3.70;;;14.80;98.80;;;;;;5077614;28;20036;-75
2022/04/23 08:57:04;;;;;;;6.00;3.17;;;14.90;99.10;;;;;;5077814;28;20479;-75
2022/04/23 08:59:30;;;;;;;4.47;2.60;;;14.80;98.10;;;;;;5061094;28;20096;-75
2022/04/23 09:01:55;;;;;;;5.55;3.40;;;14.90;98.40;;;;;;5077310;28;20407;-74
2022/04/23 09:04:21;;;;;;;6.75;3.55;;;14.90;97.10;;;;;;5077571;28;20055;-74
2022/04/23 09:06:48;;;;;;;4.20;2.95;;;14.90;98.10;;;;;;5094073;28;20114;-73
2022/04/23 09:09:17;;;;;;;4.07;2.80;;;15.00;97.80;;;;;;5094065;28;20032;-74
2022/04/23 09:11:50;;;;;;;6.00;3.20;;;15.00;96.40;;;;;;5094032;28;20036;-74
2022/04/23 09:14:33;;;;;;;5.32;2.63;;;15.10;96.70;;;;;;5060392;28;20035;-74
2022/04/23 09:25:37;;;;;;;4.43;2.55;;;15.30;96.70;;;;;;5094108;28;20514;-75
2022/04/23 09:28:23;;;;;;;4.60;2.83;;;15.40;96.70;;;;;;5093641;28;20075;-74
2022/04/23 09:30:56;;;;;;;5.53;3.00;;;15.30;95.50;;;;;;5076835;28;20076;-74
2022/04/23 09:33:33;;;;;;;6.82;3.20;;;15.40;95.60;;;;;;5077024;28;20499;-75
2022/04/23 09:36:03;;;;;;;10.68;3.33;;;15.40;95.70;;;;;;5061529;28;20546;-74
2022/04/23 09:38:30;;;;;;;2.58;1.92;;;15.30;95.30;;;;;;5093459;28;20051;-75
2022/04/23 09:41:16;;;;;;;3.83;2.30;;;15.40;95.60;;;;;;5093430;28;20043;-75
2022/04/23 09:43:44;;;;;;;4.40;2.95;;;15.50;95.50;;;;;;5076517;28;20047;-74
2022/04/23 09:46:10;;;;;;;3.45;2.50;;;15.60;95.60;;;;;;5076564;28;20043;-73
2022/04/23 09:48:43;;;;;;;4.28;2.40;;;15.60;95.30;;;;;;5076337;28;20040;-73
2022/04/23 09:51:28;;;;;;;7.22;3.05;;;15.80;95.70;;;;;;5093150;28;20044;-75
2022/04/23 09:53:55;;;;;;;3.97;2.97;;;15.80;95.00;;;;;;5076643;28;20047;-75
2022/04/23 09:56:22;;;;;;;6.75;3.00;;;15.80;95.30;;;;;;5076548;28;20048;-74
2022/04/23 09:58:49;;;;;;;6.03;3.28;;;16.00;94.90;;;;;;5076489;28;20519;-75
2022/04/23 10:01:21;;;;;;;4.28;2.75;;;16.00;94.60;;;;;;5076205;28;20040;-75
2022/04/23 10:03:53;;;;;;;7.25;2.92;;;16.00;93.90;;;;;;5093184;28;20119;-76
2022/04/23 10:06:21;;;;;;;5.15;3.28;;;16.00;93.90;;;;;;5093297;28;20495;-74
2022/04/23 10:08:53;;;;;;;7.22;2.88;;;16.20;95.00;;;;;;5076131;28;20109;-76
2022/04/23 10:11:30;;;;;;;4.78;2.90;;;16.10;94.50;;;;;;5076316;28;20044;-78
2022/04/23 10:14:05;;;;;;;7.90;3.13;;;16.20;94.00;;;;;;5093258;28;20089;-76
2022/04/23 10:16:33;;;;;;;3.88;2.88;;;16.20;94.20;;;;;;5093221;28;20044;-74
2022/04/23 10:19:00;;;;;;;6.55;3.30;;;16.30;94.10;;;;;;5092780;28;20040;-75
2022/04/23 10:22:01;;;;;;;5.65;3.22;;;16.20;93.80;;;;;;5092808;28;20040;-78
2022/04/23 10:24:48;;;;;;;4.70;2.88;;;16.30;93.40;;;;;;5085508;28;20125;-76
2022/04/23 10:27:15;;;;;;;8.98;2.75;;;16.30;93.00;;;;;;5075730;28;20445;-75
2022/04/23 10:29:42;;;;;;;5.13;2.70;;;16.40;93.90;;;;;;5075944;28;20052;-76
2022/04/23 10:32:11;;;;;;;4.03;3.25;;;16.50;93.00;;;;;;5092450;28;20075;-76
2022/04/23 10:34:38;;;;;;;6.35;3.40;;;16.50;93.20;;;;;;5092493;28;20040;-74
2022/04/23 10:37:18;;;;;;;4.28;2.80;;;16.50;92.90;;;;;;5075474;28;20085;-75
2022/04/23 10:39:50;;;;;;;5.55;2.90;;;16.50;92.50;;;;;;5075537;28;20059;-74
2022/04/23 10:42:17;;;;;;;4.85;3.28;;;16.50;92.50;;;;;;5092353;28;20049;-77
2022/04/23 10:44:44;;;;;;;4.68;3.00;;;16.40;92.60;;;;;;5075619;28;20127;-72
2022/04/23 10:47:34;;;;;;;4.47;3.33;;;16.50;92.20;;;;;;5092265;28;20044;-83
2022/04/23 10:50:23;;;;;;;4.05;2.58;;;16.50;91.80;;;;;;5091940;28;20496;-76
2022/04/23 10:52:50;;;;;;;5.65;3.13;;;16.60;92.50;;;;;;5092470;28;20073;-74
2022/04/23 10:55:16;;;;;;;4.35;2.58;;;16.50;91.80;;;;;;5091900;28;20040;-73
2022/04/23 10:57:53;;;;;;;4.90;3.13;;;16.60;91.60;;;;;;5091990;28;20036;-74
2022/04/23 11:00:20;;;;;;;4.95;2.85;;;16.60;91.70;;;;;;5091759;28;20051;-74
2022/04/23 11:02:54;;;;;;;5.50;2.80;;;16.60;91.00;;;;;;5091787;28;20488;-73
2022/04/23 11:13:54;;;;;;;11.90;3.10;;;16.70;92.00;;;;;;5091851;28;20105;-73
2022/04/23 11:16:21;;;;;;;4.55;2.55;;;16.90;91.60;;;;;;5058606;28;20043;-73
2022/04/23 11:18:52;;;;;;;3.45;2.22;;;16.70;91.30;;;;;;5091634;28;20071;-72
2022/04/23 11:21:28;;;;;;;5.40;2.85;;;16.70;91.20;;;;;;5091811;28;20127;-73
2022/04/23 11:23:56;;;;;;;6.70;3.60;;;16.80;91.40;;;;;;5091895;28;20479;-71
2022/04/23 11:26:42;;;;;;;4.72;2.95;;;16.80;91.70;;;;;;5074678;28;20097;-73
2022/04/23 11:29:08;;;;;;;3.88;3.05;;;16.80;91.20;;;;;;5091871;28;20048;-74
2022/04/23 11:31:34;;;;;;;5.43;2.35;;;16.80;91.40;;;;;;5091397;28;20060;-75
2022/04/23 11:34:02;;;;;;;5.75;3.55;;;16.80;90.50;;;;;;5074769;28;20556;-73
2022/04/23 11:36:29;;;;;;;4.78;3.10;;;16.80;91.30;;;;;;5091805;28;20040;-74
2022/04/23 11:39:07;;;;;;;6.10;3.15;;;16.90;91.50;;;;;;5075064;28;20491;-74
2022/04/23 11:41:35;;;;;;;5.88;3.50;;;16.90;91.00;;;;;;5074870;28;20506;-74
2022/04/23 11:47:11;;;;;;;3.78;2.67;;;16.90;90.70;;;;;;5091646;28;20131;-74
2022/04/23 11:49:37;;;;;;;5.32;2.75;;;17.00;91.10;;;;;;5058464;28;20504;-72
2022/04/23 11:52:07;;;;;;;7.05;3.00;;;16.90;89.30;;;;;;5091555;28;20094;-73
2022/04/23 11:54:44;;;;;;;4.38;2.75;;;17.00;90.20;;;;;;5075150;28;20062;-74
2022/04/23 11:57:12;;;;;;;6.13;2.83;;;17.00;90.10;;;;;;5091601;28;20540;-73
2022/04/23 11:59:45;;;;;;;7.68;3.10;;;17.00;89.90;;;;;;5091276;28;20044;-72
2022/04/23 12:02:22;;;;;;;4.28;2.50;;;16.90;87.70;;;;;;5091720;28;20534;-73
2022/04/23 12:04:49;;;;;;;8.32;3.50;;;17.10;89.50;;;;;;5074785;28;20376;-74
2022/04/23 12:07:16;;;;;;;7.22;3.08;;;17.20;87.20;;;;;;5091361;28;20074;-74
2022/04/23 12:09:52;;;;;;;4.32;2.10;;;17.30;87.20;;;;;;5091139;28;20036;-73
2022/04/23 12:12:23;;;;;;;4.03;2.35;;;17.50;88.00;;;;;;5091830;28;20040;-73
2022/04/23 12:14:57;;;;;;;5.35;3.30;;;17.50;87.70;;;;;;5094986;28;20032;-76
2022/04/23 12:17:26;;;;;;;3.55;2.55;;;17.60;87.10;;;;;;5078465;28;20036;-74
2022/04/23 12:19:56;;;;;;;7.68;3.22;;;;;;;;;;5095261;28;20541;-75
2022/04/23 12:22:26;;;;;;;3.70;2.80;;;;;;;;;;5094928;28;20040;-74
2022/04/23 12:25:05;;;;;;;3.88;2.20;;;;;;;;;;5094761;28;20071;-73
2022/04/23 12:27:51;;;;;;;3.33;2.25;;;;;;;;;;5094887;28;20044;-73
2022/04/23 12:41:26;;;;;;;4.30;2.70;;;;;;;;;;5094550;28;20051;-72
2022/04/23 12:43:52;;;;;;;3.72;2.60;;;;;;;;;;5094762;28;20051;-74
2022/04/23 12:46:18;;;;;;;3.28;2.60;;;;;;;;;;5094520;28;20056;-73
2022/04/23 12:49:00;;;;;;;4.97;2.33;;;;;;;;;;5077893;28;20055;-75
2022/04/23 12:51:27;;;;;;;4.70;2.50;;;;;;;;;;5077769;28;20097;-75
2022/04/23 12:53:53;;;;;;;3.95;2.55;;;;;;;;;;5077573;28;20101;-73
2022/04/23 12:56:31;;;;;;;3.50;2.47;;;;;;;;;;5094285;28;20047;-73
2022/04/23 12:58:57;;;;;;;2.20;1.88;;;;;;;;;;5094479;28;20547;-74
2022/04/23 13:01:23;;;;;;;4.95;2.83;;;;;;;;;;5094514;28;20032;-73
2022/04/23 13:03:49;;;;;;;5.05;2.55;;;;;;;;;;5094514;28;20443;-73
2022/04/23 13:09:00;;;;;;;3.83;2.42;;;;;;;;;;5080093;28;20097;-72
2022/04/23 13:11:30;;;;;;;4.30;2.92;;;;;;;;;;5077305;28;20495;-78
2022/04/23 13:14:00;;;;;;;3.78;2.03;;;;;;;;;;5093970;28;20048;-75
2022/04/23 13:16:30;;;;;;;2.75;2.00;;;;;;;;;;5094155;28;20081;-74
2022/04/23 13:18:57;;;;;;;3.13;1.92;;;;;;;;;;5077026;28;20036;-74
2022/04/23 13:21:24;;;;;;;2.75;2.17;;;;;;;;;;5060720;28;20181;-74
2022/04/23 13:23:51;;;;;;;2.83;1.88;;;;;;;;;;5093109;28;20044;-73
2022/04/23 13:26:18;;;;;;;2.97;2.08;;;;;;;;;;5093784;28;20093;-73
2022/04/23 13:28:44;;;;;;;5.15;1.80;;;;;;;;;;5093969;28;20534;-74
2022/04/23 13:31:11;;;;;;;2.70;1.60;;;;;;;;;;5093365;28;20052;-74
2022/04/23 13:33:37;;;;;;;3.10;1.85;;;;;;;;;;5076744;28;20036;-75
2022/04/23 13:36:04;;;;;;;2.88;1.60;;;;;;;;;;5093768;28;20532;-74
2022/04/23 13:38:30;;;;;;;2.60;1.77;;;;;;;;;;5093647;28;20089;-74
2022/04/23 13:40:56;;;;;;;3.53;1.75;;;;;;;;;;5059978;28;20040;-75
2022/04/23 13:43:23;;;;;;;2.63;1.58;;;;;;;;;;5076604;28;20044;-72
2022/04/23 13:45:49;;;;;;;2.65;1.88;;;;;;;;;;5076465;28;20040;-73